Flight Track Log - Related Links

Times and Time Zones

All times are in EDT time to prevent confusion due to time zone crossing. See the DAL1830 flight status page for this flight to view local times or setup timezone preferences in your user account.

Time Position Orientation Groundspeed Altitude Reporting Facility
EDT Latitude Longitude Course Direction KTS MPH feet Rate Location/Type
Tue 07:18:23 PM 40.8119 -111.9633 78° East 187 215 5,500  Level Salt Lake Center
Tue 07:19:05 PM 40.8500 -111.9703 352° North 212 244 6,500 2,541 Climbing Salt Lake Center
Tue 07:20:14 PM 40.9222 -111.9786 355° North 241 277 10,200 2,585 Climbing Salt Lake Center
Tue 07:21:00 PM 41.1333 -111.8991 90° East  Level FlightAware Approximate
Tue 07:21:15 PM 40.9622 -111.8967 57° Northeast 289 333 12,100  Level Salt Lake Center
Tue 07:22:00 PM 41.1065 -111.7364 135° Southeast  Level FlightAware Approximate
Tue 07:22:17 PM 40.9961 -111.7550 72° East 356 410 14,900  Level Salt Lake Center
Tue 07:23:00 PM 41.0176 -111.6109 78° East  Level FlightAware Approximate
Tue 07:23:18 PM 41.0281 -111.6203 73° East 391 450 16,800  Level Salt Lake Center
Tue 07:24:20 PM 41.0419 -111.4614 83° East 437 503 18,600 1,756 Climbing Salt Lake Center
Tue 07:25:21 PM 41.0575 -111.2922 83° East 464 534 20,400 1,854 Climbing Salt Lake Center
Tue 07:26:23 PM 41.0733 -111.1128 83° East 490 564 22,400 2,000 Climbing Salt Lake Center
Tue 07:27:24 PM 41.1200 -110.9058 73° East 511 588 24,500 1,854 Climbing Salt Lake Center
Tue 07:28:26 PM 41.1656 -110.7314 71° East 522 601 26,200 1,403 Climbing Salt Lake Center
Tue 07:29:28 PM 41.2119 -110.5511 71° East 538 619 27,400 1,268 Climbing Salt Lake Center
Tue 07:30:29 PM 41.2647 -110.3342 72° East 551 634 28,800 1,220 Climbing Salt Lake Center
Tue 07:31:31 PM 41.3136 -110.1431 71° East 568 654 29,900 1,171 Climbing Salt Lake Center
Tue 07:32:32 PM 41.3683 -109.9178 72° East 573 659 31,200 1,317 Climbing Salt Lake Center
Tue 07:33:34 PM 41.4172 -109.7228 71° East 578 665 32,600 1,561 Climbing Salt Lake Center
Tue 07:34:35 PM 41.4656 -109.5289 72° East 576 663 34,400 1,171 Climbing Salt Lake Center
Tue 07:35:37 PM 41.5208 -109.3039 72° East 569 655 35,000 290 Climbing Salt Lake Center
Tue 07:36:39 PM 41.5681 -109.1075 72° East 566 651 35,000  Level Salt Lake Center
Tue 07:37:40 PM 41.6050 -108.9089 76° East 564 649 35,000  Level Salt Lake Center
Tue 07:38:42 PM 41.6344 -108.6769 80° East 566 651 35,000  Level Salt Lake Center
Tue 07:39:43 PM 41.6606 -108.4772 80° East 567 652 35,000  Level Salt Lake Center
Tue 07:40:45 PM 41.6889 -108.2425 81° East 572 658 35,000  Level Salt Lake Center
Tue 07:41:34 PM 41.7100 -108.0719 81° East 576 663 35,000  Level Denver Center
Tue 07:42:36 PM 41.7350 -107.8689 81° East 579 666 35,000  Level Denver Center
Tue 07:43:37 PM 41.7631 -107.6308 81° East 580 667 35,000  Level Denver Center
Tue 07:44:39 PM 41.7869 -107.4303 81° East 574 661 35,000  Level Denver Center
Tue 07:45:41 PM 41.8139 -107.1956 81° East 571 657 35,000  Level Denver Center
Tue 07:46:43 PM 41.8383 -106.9972 81° East 564 649 35,000  Level Denver Center
Tue 07:47:45 PM 41.8583 -106.7975 82° East 565 650 35,000  Level Denver Center
Tue 07:48:46 PM 41.8858 -106.5658 81° East 565 650 35,000  Level Denver Center
Tue 07:49:48 PM 41.9064 -106.3706 82° East 563 648 35,000  Level Denver Center
Tue 07:50:50 PM 41.9303 -106.1381 82° East 564 649 35,000  Level Denver Center
Tue 07:51:52 PM 41.9528 -105.9397 81° East 563 648 35,000  Level Denver Center
Tue 07:53:06 PM 41.9764 -105.7064 82° East 563 648 35,000  Level Denver Center
Tue 07:54:07 PM 41.9961 -105.5072 82° East 563 648 35,000  Level Denver Center
Tue 07:55:09 PM 42.0219 -105.2433 82° East 560 644 35,000  Level Denver Center
Tue 07:56:11 PM 42.0411 -105.0456 83° East 559 643 35,000  Level Denver Center
Tue 07:57:13 PM 42.0619 -104.8136 83° East 562 647 35,000  Level Denver Center
Tue 07:58:15 PM 42.0811 -104.6164 82° East 557 641 35,000  Level Denver Center
Tue 07:59:16 PM 42.1019 -104.3864 83° East 559 643 35,000  Level Denver Center
Tue 08:00:21 PM 42.1228 -104.1561 83° East 559 643 35,000  Level Denver Center
Tue 08:01:22 PM 42.1367 -103.9931 83° East 555 639 35,000  Level Denver Center
Tue 08:02:24 PM 42.1586 -103.7333 83° East 550 633 35,000  Level Denver Center
Tue 08:03:26 PM 42.1750 -103.5389 83° East 547 629 35,000  Level Denver Center
Tue 08:04:27 PM 42.1906 -103.3456 84° East 545 627 35,000  Level Denver Center
Tue 08:05:29 PM 42.2083 -103.1206 84° East 543 625 35,000  Level Denver Center
Tue 08:06:31 PM 42.2231 -102.9256 84° East 546 628 35,000  Level Denver Center
Tue 08:07:33 PM 42.2411 -102.6989 84° East 546 628 35,000  Level Denver Center
Tue 08:08:34 PM 42.2547 -102.5056 85° East 543 625 35,000  Level Denver Center
Tue 08:09:36 PM 42.2664 -102.3447 84° East 541 623 35,000  Level Denver Center
Tue 08:10:37 PM 42.2828 -102.1203 84° East 540 621 35,000  Level Denver Center
Tue 08:11:39 PM 42.2997 -101.8653 85° East 536 617 35,000  Level Denver Center
Tue 08:12:41 PM 42.3136 -101.6683 84° East 540 621 35,000  Level Denver Center
Tue 08:13:42 PM 42.3258 -101.4772 85° East 535 616 35,000  Level Denver Center
Tue 08:14:44 PM 42.3408 -101.2544 85° East 532 612 35,000  Level Denver Center
Tue 08:15:46 PM 42.3522 -101.0639 85° East 530 610 35,000 537 Level Denver Center
Tue 08:16:47 PM 42.3653 -100.8414 85° East 530 610 36,100 976 Climbing Denver Center
Tue 08:17:49 PM 42.3756 -100.6556 86° East 523 602 37,000 439 Climbing Denver Center
Tue 08:18:50 PM 42.3861 -100.4669 86° East 523 602 37,000  Level Denver Center
Tue 08:19:52 PM 42.3983 -100.2469 86° East 524 603 37,000  Level Denver Center
Tue 08:20:30 PM 42.4044 -100.1178 86° East 527 606 37,000  Level Minneapolis Center
Tue 08:20:54 PM 42.4083 -100.0556 85° East 531 611 37,000  Level Denver Center
Tue 08:21:55 PM 42.4192 -99.8308 86° East 535 616 37,000  Level Denver Center
Tue 08:22:33 PM 42.4258 -99.7161 85° East 533 613 37,000  Level Minneapolis Center
Tue 08:23:34 PM 42.4342 -99.5161 87° East 532 612 37,000  Level Minneapolis Center
Tue 08:23:58 PM 42.4372 -99.4342 87° East 532 612 37,000  Level Denver Center
Tue 08:24:36 PM 42.4447 -99.3150 85° East 534 615 37,000  Level Minneapolis Center
Tue 08:25:38 PM 42.4522 -99.1161 87° East 529 609 37,000  Level Minneapolis Center
Tue 08:26:39 PM 42.4617 -98.9158 86° East 529 609 37,000  Level Minneapolis Center
Tue 08:27:41 PM 42.4694 -98.7189 87° East 525 604 37,000  Level Minneapolis Center
Tue 08:28:42 PM 42.4786 -98.5203 86° East 525 604 37,000  Level Minneapolis Center
Tue 08:29:44 PM 42.4894 -98.3222 86° East 526 605 37,000  Level Minneapolis Center
Tue 08:30:46 PM 42.5000 -98.0883 86° East 520 598 37,000  Level Minneapolis Center
Tue 08:31:47 PM 42.5094 -97.8922 86° East 520 598 37,000  Level Minneapolis Center
Tue 08:32:49 PM 42.5164 -97.7142 87° East 518 596 37,000  Level Minneapolis Center
Tue 08:33:51 PM 42.5242 -97.5203 87° East 515 593 37,000  Level Minneapolis Center
Tue 08:34:52 PM 42.5322 -97.3272 87° East 514 592 37,000  Level Minneapolis Center
Tue 08:35:54 PM 42.5411 -97.0944 87° East 514 592 37,000  Level Minneapolis Center
Tue 08:36:56 PM 42.5481 -96.9000 87° East 515 593 37,000  Level Minneapolis Center
Tue 08:37:57 PM 42.5583 -96.7075 86° East 514 592 37,000  Level Minneapolis Center
Tue 08:38:59 PM 42.5856 -96.5172 79° East 512 589 37,000  Level Minneapolis Center
Tue 08:40:01 PM 42.6125 -96.3267 79° East 513 590 37,000  Level Minneapolis Center
Tue 08:41:03 PM 42.6397 -96.1367 79° East 512 589 37,000  Level Minneapolis Center
Tue 08:42:04 PM 42.6689 -95.9464 78° East 512 589 37,000  Level Minneapolis Center
Tue 08:43:06 PM 42.6989 -95.7614 77° East 505 581 37,000  Level Minneapolis Center
Tue 08:44:08 PM 42.7322 -95.5428 78° East 505 581 37,000  Level Minneapolis Center
Tue 08:45:10 PM 42.7631 -95.3603 77° East 500 575 37,000  Level Minneapolis Center
Tue 08:46:11 PM 42.7950 -95.1758 77° East 502 578 37,000  Level Minneapolis Center
Tue 08:47:13 PM 42.8256 -94.9939 77° East 497 572 37,000  Level Minneapolis Center
Tue 08:48:15 PM 42.8567 -94.8103 77° East 500 575 37,000  Level Minneapolis Center
Tue 08:49:17 PM 42.8822 -94.5881 81° East 497 572 37,000  Level Minneapolis Center
Tue 08:50:19 PM 42.9006 -94.4328 81° East 500 575 37,000  Level Minneapolis Center
Tue 08:51:20 PM 42.9056 -94.2133 88° East 491 565 37,000  Level Minneapolis Center
Tue 08:52:22 PM 42.8944 -94.0283 95° East 493 567 37,000  Level Minneapolis Center
Tue 08:53:24 PM 42.8814 -93.8450 95° East 492 566 37,000  Level Minneapolis Center
Tue 08:54:26 PM 42.8244 -93.6833 116° Southeast 481 554 37,000  Level Minneapolis Center
Tue 08:55:28 PM 42.7794 -93.5117 110° East 486 559 37,000  Level Minneapolis Center
Tue 08:56:30 PM 42.7353 -93.3039 106° East 483 556 37,000  Level Minneapolis Center
Tue 08:57:44 PM 42.7125 -93.0858 98° East 492 566 37,000  Level Minneapolis Center
Tue 09:00:08 PM 42.7156 -92.6442 89° East 490 564 37,000  Level Chicago Center
Tue 09:01:10 PM 42.7167 -92.4622 89° East 488 562 37,000  Level Chicago Center
Tue 09:02:12 PM 42.7192 -92.2794 89° East 488 562 37,000 242 Level Chicago Center
Tue 09:03:14 PM 42.7200 -92.0611 90° East 487 560 37,500 629 Climbing Chicago Center
Tue 09:04:16 PM 42.7206 -91.8806 90° East 483 556 38,300 765 Climbing Chicago Center
Tue 09:04:56 PM 42.7214 -91.7722 89° East 485 558 38,800 412 Climbing Minneapolis Center
Tue 09:05:58 PM 42.7219 -91.5725 90° East 486 559 39,000 97 Climbing Minneapolis Center
Tue 09:07:00 PM 42.7208 -91.3833 90° East 489 563 39,000  Level Minneapolis Center
Tue 09:07:21 PM 42.7217 -91.3136 89° East 488 562 39,000  Level Chicago Center
Tue 09:08:23 PM 42.7211 -91.1353 90° East 480 552 39,000  Level Chicago Center
Tue 09:09:24 PM 42.7197 -90.9536 91° East 484 557 39,000  Level Chicago Center
Tue 09:10:26 PM 42.7192 -90.7744 90° East 481 554 39,000  Level Chicago Center
Tue 09:11:28 PM 42.7172 -90.5950 91° East 480 552 39,000  Level Chicago Center
Tue 09:12:30 PM 42.7161 -90.3806 90° East 479 551 39,000  Level Chicago Center
Tue 09:13:31 PM 42.7128 -90.2011 91° East 480 552 39,000  Level Chicago Center
Tue 09:14:33 PM 42.7097 -90.0228 91° East 477 549 39,000  Level Chicago Center
Tue 09:15:35 PM 42.7083 -89.8353 91° East 474 545 39,000  Level Chicago Center
Tue 09:16:36 PM 42.7056 -89.6564 91° East 474 545 39,000  Level Chicago Center
Tue 09:17:38 PM 42.7008 -89.4769 92° East 477 549 39,000  Level Chicago Center
Tue 09:18:40 PM 42.6983 -89.2669 91° East 477 549 39,000  Level Chicago Center
Tue 09:19:41 PM 42.6939 -89.0878 92° East 477 549 39,000  Level Chicago Center
Tue 09:20:43 PM 42.6903 -88.9078 92° East 478 550 39,000  Level Chicago Center
Tue 09:21:45 PM 42.6864 -88.7289 92° East 477 549 39,000  Level Chicago Center
Tue 09:22:46 PM 42.6817 -88.5514 92° East 473 544 39,000  Level Chicago Center
Tue 09:23:48 PM 42.6772 -88.3742 92° East 472 543 39,000  Level Chicago Center
Tue 09:24:50 PM 42.6717 -88.1700 92° East 467 537 39,000  Level Chicago Center
Tue 09:25:51 PM 42.6661 -87.9931 92° East 469 540 39,000  Level Chicago Center
Tue 09:26:53 PM 42.6606 -87.8217 92° East 460 529 39,000  Level Chicago Center
Tue 09:27:55 PM 42.6542 -87.6519 93° East 453 521 39,000  Level Chicago Center
Tue 09:28:56 PM 42.6489 -87.4856 92° East 444 511 39,000  Level Chicago Center
Tue 09:29:58 PM 42.6417 -87.3006 93° East 446 513 39,000  Level Chicago Center
Tue 09:31:00 PM 42.6367 -87.1306 92° East 452 520 39,000  Level Chicago Center
Tue 09:32:01 PM 42.6294 -86.9611 93° East 452 520 39,000  Level Chicago Center
Tue 09:33:03 PM 42.6225 -86.7925 93° East 450 518 39,000  Level Chicago Center
Tue 09:34:04 PM 42.6136 -86.6231 94° East 452 520 39,000  Level Chicago Center
Tue 09:35:06 PM 42.6056 -86.4539 94° East 452 520 39,000  Level Chicago Center
Tue 09:36:08 PM 42.5953 -86.2469 94° East 461 531 39,000  Level Chicago Center
Tue 09:37:09 PM 42.5867 -86.0733 94° East 465 535 39,000  Level Chicago Center
Tue 09:38:11 PM 42.5772 -85.8992 94° East 467 537 39,000  Level Chicago Center
Tue 09:39:12 PM 42.5678 -85.7264 94° East 466 536 39,000  Level Chicago Center
Tue 09:40:14 PM 42.5586 -85.5547 94° East 463 533 39,000  Level Chicago Center
Tue 09:41:15 PM 42.5500 -85.3831 94° East 459 528 39,000  Level Chicago Center
Tue 09:42:17 PM 42.5381 -85.1794 94° East 456 525 39,000  Level Chicago Center
Tue 09:43:18 PM 42.5286 -85.0092 94° East 455 524 39,000  Level Chicago Center
Tue 09:44:20 PM 42.5178 -84.8411 95° East 452 520 39,000  Level Chicago Center
Tue 09:45:21 PM 42.5072 -84.6725 95° East 450 518 39,000  Level Chicago Center
Tue 09:46:10 PM 42.4969 -84.5261 95° East 447 514 39,000  Level Cleveland Center
Tue 09:47:09 PM 42.4836 -84.3592 96° East 447 514 39,000  Level Cleveland Center
Tue 09:48:09 PM 42.4725 -84.1922 95° East 447 514 39,000  Level Cleveland Center
Tue 09:49:09 PM 42.4628 -84.0256 94° East 447 514 39,000  Level Cleveland Center
Tue 09:50:09 PM 42.4511 -83.8589 95° East 447 514 39,000  Level Cleveland Center
Tue 09:51:09 PM 42.4422 -83.7261 95° East 447 514 39,000  Level Cleveland Center
Tue 09:52:09 PM 42.4303 -83.5456 95° East 442 509 39,000  Level Cleveland Center
Tue 09:53:09 PM 42.4156 -83.3844 97° East 442 509 39,000  Level Cleveland Center
Tue 09:54:09 PM 42.4050 -83.2153 95° East 442 509 39,000  Level Cleveland Center
Tue 09:55:09 PM 42.3900 -83.0517 97° East 442 509 39,000  Level Cleveland Center
Tue 09:56:09 PM 42.3767 -82.8881 96° East 442 509 39,000  Level Cleveland Center
Tue 09:57:09 PM 42.3653 -82.7244 95° East 442 509 39,000  Level Cleveland Center
Tue 09:58:09 PM 42.3514 -82.5583 96° East 442 509 39,000  Level Cleveland Center
Tue 09:59:09 PM 42.3375 -82.3950 97° East 447 514 39,000  Level Cleveland Center
Tue 10:00:09 PM 42.3233 -82.2261 96° East 447 514 39,000  Level Cleveland Center
Tue 10:01:10 PM 42.3092 -82.0489 96° East 447 514 39,000  Level Cleveland Center
Tue 10:02:09 PM 42.2944 -81.8800 97° East 447 514 39,000  Level Cleveland Center
Tue 10:03:09 PM 42.2794 -81.7169 97° East 441 507 39,000  Level Cleveland Center
Tue 10:04:09 PM 42.2661 -81.5736 97° East 441 507 39,000  Level Cleveland Center
Tue 10:05:10 PM 42.2531 -81.4106 96° East 441 507 39,000  Level Cleveland Center
Tue 10:06:10 PM 42.2353 -81.2478 98° East 441 507 39,000  Level Cleveland Center
Tue 10:07:10 PM 42.2214 -81.0850 97° East 436 502 39,000  Level Cleveland Center
Tue 10:08:09 PM 42.2053 -80.9250 98° East 441 507 39,000  Level Cleveland Center
Tue 10:09:09 PM 42.1892 -80.7456 97° East 442 509 39,000  Level Cleveland Center
Tue 10:10:09 PM 42.1725 -80.5831 98° East 442 509 39,000  Level Cleveland Center
Tue 10:12:09 PM 42.1367 -80.2556 98° East 442 509 39,000  Level Cleveland Center
Tue 10:13:10 PM 42.1217 -80.0961 97° East 442 509 39,000  Level Cleveland Center
Tue 10:14:10 PM 42.1083 -79.9478 97° East 442 509 39,000  Level Cleveland Center
Tue 10:15:10 PM 42.0906 -79.7831 98° East 442 509 39,000  Level Cleveland Center
Tue 10:16:10 PM 42.0706 -79.6181 99° East 448 516 39,000  Level Cleveland Center
Tue 10:18:10 PM 42.0339 -79.2833 98° East 448 516 39,000  Level Cleveland Center
Tue 10:19:09 PM 42.0089 -79.0994 100° East 448 516 39,000  Level Cleveland Center
Tue 10:20:10 PM 41.9836 -78.9322 101° East 453 521 39,000  Level Cleveland Center
Tue 10:21:10 PM 41.9561 -78.7683 103° East 453 521 39,000  Level Cleveland Center
Tue 10:22:10 PM 41.9181 -78.6131 108° East 448 516 39,000  Level Cleveland Center
Tue 10:23:09 PM 41.8614 -78.4642 117° Southeast 443 510 39,000  Level Cleveland Center
Tue 10:25:04 PM 41.7617 -78.2042 117° Southeast 444 511 39,000  Level New York Center
Tue 10:26:03 PM 41.7064 -78.0536 116° Southeast 444 511 39,000  Level New York Center
Tue 10:27:04 PM 41.6931 -77.8939 96° East 430 495 39,000  Level New York Center
Tue 10:28:05 PM 41.6906 -77.7267 91° East 436 502 39,000  Level New York Center
Tue 10:29:04 PM 41.6875 -77.5625 91° East 442 509 39,000 -250 Level New York Center
Tue 10:30:05 PM 41.6844 -77.3983 91° East 442 509 38,500 -744 Descending New York Center
Tue 10:31:05 PM 41.6803 -77.2450 92° East 434 499 37,500 -744 Descending New York Center
Tue 10:32:06 PM 41.6728 -77.0722 93° East 428 493 37,000 -248 Descending New York Center
Tue 10:33:06 PM 41.6219 -76.9342 116° Southeast 422 486 37,000  Level New York Center
Tue 10:34:03 PM 41.5778 -76.7775 111° Southeast 432 497 37,000  Level New York Center
Tue 10:35:04 PM 41.5353 -76.6267 111° Southeast 437 503 37,000  Level New York Center
Tue 10:36:05 PM 41.4914 -76.4594 109° East 437 503 37,000 -397 Level New York Center
Tue 10:37:05 PM 41.4558 -76.3319 110° East 448 516 36,200 -942 Descending New York Center
Tue 10:38:06 PM 41.4025 -76.1311 109° East 458 527 35,100 -1,041 Descending New York Center
Tue 10:39:06 PM 41.3550 -75.9808 113° Southeast 457 526 34,100 -1,450 Descending New York Center
Tue 10:40:06 PM 41.3153 -75.8425 111° Southeast 451 519 32,200 -2,850 Descending New York Center
Tue 10:41:06 PM 41.2622 -75.6672 112° Southeast 451 519 28,400 -3,333 Descending New York Center
Tue 10:42:03 PM 41.2142 -75.5150 113° Southeast 456 525 25,700 -2,644 Descending New York Center
Tue 10:43:04 PM 41.1639 -75.3681 114° Southeast 443 510 23,200 -1,328 Descending New York Center
Tue 10:44:05 PM 41.1172 -75.2272 114° Southeast 428 493 23,000 -100 Descending New York Center
Tue 10:45:04 PM 41.0703 -75.0864 114° Southeast 423 487 23,000  Level New York Center
Tue 10:46:04 PM 41.0211 -74.9431 114° Southeast 423 487 23,000  Level New York Center
Tue 10:47:05 PM 40.9889 -74.7928 106° East 423 487 23,000  Level New York Center
Tue 10:48:05 PM 40.9731 -74.6433 98° East 417 480 23,000 -99 Level New York Center
Tue 10:49:06 PM 40.9550 -74.4939 99° East 412 474 22,800 -1,488 Descending New York Center
Tue 10:50:06 PM 40.9389 -74.3447 98° East 412 474 20,000 -2,667 Descending New York Center
Tue 10:50:27 PM 40.9333 -74.2833 97° East 413 475 19,200 -800 Descending New York TRACON
Tue 10:51:21 PM 40.9167 -74.1500 99° East 395 455 19,000 -1,133 Descending New York TRACON
Tue 10:53:27 PM 40.8000 -73.9000 122° Southeast 383 441 15,800 -1,733 Descending New York TRACON
Tue 10:54:21 PM 40.7500 -73.8000 123° Southeast 365 420 13,800 -2,421 Descending New York TRACON
Tue 10:55:21 PM 40.6667 -73.7333 149° Southeast 383 441 11,200 -1,714 Descending New York TRACON
Tue 10:56:27 PM 40.5667 -73.7333 180° South 318 366 10,200 -1,500 Descending New York TRACON
Tue 10:57:21 PM 40.5000 -73.7667 201° Southwest 260 299 8,200 -2,579 Descending New York TRACON
Tue 10:58:21 PM 40.4333 -73.8000 201° Southwest 261 300 5,300 -2,350 Descending New York TRACON
Tue 10:59:21 PM 40.4000 -73.8833 242° Southwest 251 289 3,500 -1,095 Descending New York TRACON
Tue 11:00:27 PM 40.4333 -73.9667 298° West 236 272 3,000 -263 Descending New York TRACON
Tue 11:01:15 PM 40.4667 -73.9833 339° North 214 246 3,000  Level New York TRACON
Tue 11:02:27 PM 40.5333 -73.9500 21° North 189 217 3,000 -48 Level New York TRACON
Tue 11:03:21 PM 40.5667 -73.9333 21° North 181 208 2,900 -556 Descending New York TRACON
Tue 11:04:15 PM 40.6167 -73.9000 27° Northeast 158 182 2,000 -1,000 Descending New York TRACON

Login

Don't have an account? Register now (free) for customized features, flight alerts, and more!